sensor_id;sensor_type;location;lat;lon;timestamp;temperature;humidity
16929;DHT22;8581;47.334;11.190;2024-01-30T00:02:31;-2.00;99.90
16929;DHT22;8581;47.334;11.190;2024-01-30T00:05:53;-2.10;99.90
16929;DHT22;8581;47.334;11.190;2024-01-30T00:09:20;-2.20;99.90
16929;DHT22;8581;47.334;11.190;2024-01-30T00:12:42;-2.10;99.90
16929;DHT22;8581;47.334;11.190;2024-01-30T00:16:04;-2.10;99.90
16929;DHT22;8581;47.334;11.190;2024-01-30T00:19:26;-2.10;99.90
16929;DHT22;8581;47.334;11.190;2024-01-30T00:22:48;-2.00;99.90
16929;DHT22;8581;47.334;11.190;2024-01-30T00:26:09;-2.00;99.90
16929;DHT22;8581;47.334;11.190;2024-01-30T00:29:31;-2.10;99.90
16929;DHT22;8581;47.334;11.190;2024-01-30T00:32:53;-2.10;99.90
16929;DHT22;8581;47.334;11.190;2024-01-30T00:36:14;-2.20;99.90
16929;DHT22;8581;47.334;11.190;2024-01-30T00:39:36;-2.20;99.90
16929;DHT22;8581;47.334;11.190;2024-01-30T00:42:57;-2.10;99.90
16929;DHT22;8581;47.334;11.190;2024-01-30T00:46:19;-2.20;99.90
16929;DHT22;8581;47.334;11.190;2024-01-30T00:49:41;-2.20;99.90
16929;DHT22;8581;47.334;11.190;2024-01-30T00:53:02;-2.20;99.90
16929;DHT22;8581;47.334;11.190;2024-01-30T00:56:24;-2.20;99.90
16929;DHT22;8581;47.334;11.190;2024-01-30T00:59:46;-2.20;99.90
16929;DHT22;8581;47.334;11.190;2024-01-30T01:03:07;-2.20;99.90
16929;DHT22;8581;47.334;11.190;2024-01-30T01:06:29;-2.20;99.90
16929;DHT22;8581;47.334;11.190;2024-01-30T01:09:51;-2.20;99.90
16929;DHT22;8581;47.334;11.190;2024-01-30T01:13:12;-2.30;99.90
16929;DHT22;8581;47.334;11.190;2024-01-30T01:16:34;-2.30;99.90
16929;DHT22;8581;47.334;11.190;2024-01-30T01:19:56;-2.40;99.90
16929;DHT22;8581;47.334;11.190;2024-01-30T01:23:17;-2.40;99.90
16929;DHT22;8581;47.334;11.190;2024-01-30T01:26:39;-2.40;99.90
16929;DHT22;8581;47.334;11.190;2024-01-30T01:30:00;-2.40;99.90
16929;DHT22;8581;47.334;11.190;2024-01-30T01:33:22;-2.40;99.90
16929;DHT22;8581;47.334;11.190;2024-01-30T01:36:44;-2.40;99.90
16929;DHT22;8581;47.334;11.190;2024-01-30T01:40:07;-2.40;99.90
16929;DHT22;8581;47.334;11.190;2024-01-30T01:43:28;-2.40;99.90
16929;DHT22;8581;47.334;11.190;2024-01-30T01:46:50;-2.40;99.90
16929;DHT22;8581;47.334;11.190;2024-01-30T01:50:12;-2.40;99.90
16929;DHT22;8581;47.334;11.190;2024-01-30T01:53:33;-2.40;99.90
16929;DHT22;8581;47.334;11.190;2024-01-30T01:56:55;-2.20;99.90
16929;DHT22;8581;47.334;11.190;2024-01-30T02:00:17;-2.20;99.90
16929;DHT22;8581;47.334;11.190;2024-01-30T02:03:39;-2.30;99.90
16929;DHT22;8581;47.334;11.190;2024-01-30T02:07:00;-2.40;99.90
16929;DHT22;8581;47.334;11.190;2024-01-30T02:10:22;-2.50;99.90
16929;DHT22;8581;47.334;11.190;2024-01-30T02:13:43;-2.60;99.90
16929;DHT22;8581;47.334;11.190;2024-01-30T02:17:05;-2.60;99.90
16929;DHT22;8581;47.334;11.190;2024-01-30T02:20:27;-2.60;99.90
16929;DHT22;8581;47.334;11.190;2024-01-30T02:23:48;-2.50;99.90
16929;DHT22;8581;47.334;11.190;2024-01-30T02:27:10;-2.50;99.90
16929;DHT22;8581;47.334;11.190;2024-01-30T02:30:32;-2.50;99.90
16929;DHT22;8581;47.334;11.190;2024-01-30T02:33:53;-2.50;99.90
16929;DHT22;8581;47.334;11.190;2024-01-30T02:37:16;-2.50;99.90
16929;DHT22;8581;47.334;11.190;2024-01-30T02:40:36;-2.50;99.90
16929;DHT22;8581;47.334;11.190;2024-01-30T02:43:58;-2.60;99.90
16929;DHT22;8581;47.334;11.190;2024-01-30T02:47:20;-2.60;99.90
16929;DHT22;8581;47.334;11.190;2024-01-30T02:50:41;-2.70;99.90
16929;DHT22;8581;47.334;11.190;2024-01-30T02:54:03;-2.70;99.90
16929;DHT22;8581;47.334;11.190;2024-01-30T02:57:25;-2.70;99.90
16929;DHT22;8581;47.334;11.190;2024-01-30T03:00:46;-2.70;99.90
16929;DHT22;8581;47.334;11.190;2024-01-30T03:04:08;-2.70;99.90
16929;DHT22;8581;47.334;11.190;2024-01-30T03:07:30;-2.70;99.90
16929;DHT22;8581;47.334;11.190;2024-01-30T03:10:51;-2.60;99.90
16929;DHT22;8581;47.334;11.190;2024-01-30T03:14:13;-2.60;99.90
16929;DHT22;8581;47.334;11.190;2024-01-30T03:17:34;-2.60;99.90
16929;DHT22;8581;47.334;11.190;2024-01-30T03:20:56;-2.80;99.90
16929;DHT22;8581;47.334;11.190;2024-01-30T03:24:18;-2.80;99.90
16929;DHT22;8581;47.334;11.190;2024-01-30T03:27:39;-2.90;99.90
16929;DHT22;8581;47.334;11.190;2024-01-30T03:31:01;-2.80;99.90
16929;DHT22;8581;47.334;11.190;2024-01-30T03:34:23;-2.50;99.90
16929;DHT22;8581;47.334;11.190;2024-01-30T03:37:44;-2.60;99.90
16929;DHT22;8581;47.334;11.190;2024-01-30T03:41:07;-2.70;99.90
16929;DHT22;8581;47.334;11.190;2024-01-30T03:44:28;-2.70;99.90
16929;DHT22;8581;47.334;11.190;2024-01-30T03:47:50;-2.70;99.90
16929;DHT22;8581;47.334;11.190;2024-01-30T03:51:11;-2.70;99.90
16929;DHT22;8581;47.334;11.190;2024-01-30T03:54:34;-2.70;99.90
16929;DHT22;8581;47.334;11.190;2024-01-30T03:57:55;-2.70;99.90
16929;DHT22;8581;47.334;11.190;2024-01-30T04:01:17;-2.80;99.90
16929;DHT22;8581;47.334;11.190;2024-01-30T04:04:39;-2.90;99.90
16929;DHT22;8581;47.334;11.190;2024-01-30T04:08:00;-2.90;99.90
16929;DHT22;8581;47.334;11.190;2024-01-30T04:11:22;-2.80;99.90
16929;DHT22;8581;47.334;11.190;2024-01-30T04:14:43;-2.80;99.90
16929;DHT22;8581;47.334;11.190;2024-01-30T04:18:05;-2.70;99.90
16929;DHT22;8581;47.334;11.190;2024-01-30T04:21:27;-2.80;99.90
16929;DHT22;8581;47.334;11.190;2024-01-30T04:24:48;-2.80;99.90
16929;DHT22;8581;47.334;11.190;2024-01-30T04:28:10;-2.90;99.90
16929;DHT22;8581;47.334;11.190;2024-01-30T04:31:36;-2.70;99.90
16929;DHT22;8581;47.334;11.190;2024-01-30T04:34:56;-2.80;99.90
16929;DHT22;8581;47.334;11.190;2024-01-30T04:38:17;-2.80;99.90
16929;DHT22;8581;47.334;11.190;2024-01-30T04:41:39;-2.70;99.90
16929;DHT22;8581;47.334;11.190;2024-01-30T04:45:01;-2.70;99.90
16929;DHT22;8581;47.334;11.190;2024-01-30T04:48:22;-2.70;99.90
16929;DHT22;8581;47.334;11.190;2024-01-30T04:51:44;-2.80;99.90
16929;DHT22;8581;47.334;11.190;2024-01-30T04:55:06;-2.70;99.90
16929;DHT22;8581;47.334;11.190;2024-01-30T04:58:28;-2.80;99.90
16929;DHT22;8581;47.334;11.190;2024-01-30T05:01:50;-2.80;99.90
16929;DHT22;8581;47.334;11.190;2024-01-30T05:05:11;-2.90;99.90
16929;DHT22;8581;47.334;11.190;2024-01-30T05:08:33;-2.90;99.90
16929;DHT22;8581;47.334;11.190;2024-01-30T05:11:55;-2.90;99.90
16929;DHT22;8581;47.334;11.190;2024-01-30T05:15:16;-3.00;99.90
16929;DHT22;8581;47.334;11.190;2024-01-30T05:18:38;-3.00;99.90
16929;DHT22;8581;47.334;11.190;2024-01-30T05:22:00;-3.00;99.90
16929;DHT22;8581;47.334;11.190;2024-01-30T05:25:21;-3.10;99.90
16929;DHT22;8581;47.334;11.190;2024-01-30T05:28:43;-3.00;99.90
16929;DHT22;8581;47.334;11.190;2024-01-30T05:32:06;-3.00;99.90
16929;DHT22;8581;47.334;11.190;2024-01-30T05:35:28;-3.00;99.90
16929;DHT22;8581;47.334;11.190;2024-01-30T05:38:50;-3.00;99.90
16929;DHT22;8581;47.334;11.190;2024-01-30T05:42:11;-3.00;99.90
16929;DHT22;8581;47.334;11.190;2024-01-30T05:45:33;-2.90;99.90
16929;DHT22;8581;47.334;11.190;2024-01-30T05:48:55;-2.80;99.90
16929;DHT22;8581;47.334;11.190;2024-01-30T05:52:16;-2.90;99.90
16929;DHT22;8581;47.334;11.190;2024-01-30T05:55:38;-3.00;99.90
16929;DHT22;8581;47.334;11.190;2024-01-30T05:59:00;-3.00;99.90
16929;DHT22;8581;47.334;11.190;2024-01-30T06:02:21;-2.90;99.90
16929;DHT22;8581;47.334;11.190;2024-01-30T06:05:43;-2.80;99.90
16929;DHT22;8581;47.334;11.190;2024-01-30T06:09:05;-2.80;99.90
16929;DHT22;8581;47.334;11.190;2024-01-30T06:12:27;-2.80;99.90
16929;DHT22;8581;47.334;11.190;2024-01-30T06:15:48;-2.90;99.90
16929;DHT22;8581;47.334;11.190;2024-01-30T06:19:09;-2.80;99.90
16929;DHT22;8581;47.334;11.190;2024-01-30T06:22:31;-2.80;99.90
16929;DHT22;8581;47.334;11.190;2024-01-30T06:25:53;-2.60;99.90
16929;DHT22;8581;47.334;11.190;2024-01-30T06:29:14;-2.70;99.90
16929;DHT22;8581;47.334;11.190;2024-01-30T06:32:36;-2.80;99.90
16929;DHT22;8581;47.334;11.190;2024-01-30T06:35:58;-2.90;99.90
16929;DHT22;8581;47.334;11.190;2024-01-30T06:39:19;-2.90;99.90
16929;DHT22;8581;47.334;11.190;2024-01-30T06:42:41;-2.90;99.90
16929;DHT22;8581;47.334;11.190;2024-01-30T06:46:02;-2.90;99.90
16929;DHT22;8581;47.334;11.190;2024-01-30T06:49:24;-2.80;99.90
16929;DHT22;8581;47.334;11.190;2024-01-30T06:52:46;-2.80;99.90
16929;DHT22;8581;47.334;11.190;2024-01-30T06:56:07;-2.80;99.90
16929;DHT22;8581;47.334;11.190;2024-01-30T06:59:29;-2.80;99.90
16929;DHT22;8581;47.334;11.190;2024-01-30T07:02:51;-2.80;99.90
16929;DHT22;8581;47.334;11.190;2024-01-30T07:06:12;-2.70;99.90
16929;DHT22;8581;47.334;11.190;2024-01-30T07:09:34;-2.70;99.90
16929;DHT22;8581;47.334;11.190;2024-01-30T07:12:56;-2.60;99.90
16929;DHT22;8581;47.334;11.190;2024-01-30T07:16:18;-2.50;99.90
16929;DHT22;8581;47.334;11.190;2024-01-30T07:19:40;-2.50;99.90
16929;DHT22;8581;47.334;11.190;2024-01-30T07:23:01;-2.30;99.90
16929;DHT22;8581;47.334;11.190;2024-01-30T07:26:23;-2.50;99.90
16929;DHT22;8581;47.334;11.190;2024-01-30T07:29:45;-2.40;99.90
16929;DHT22;8581;47.334;11.190;2024-01-30T07:33:06;-2.30;99.90
16929;DHT22;8581;47.334;11.190;2024-01-30T07:36:28;-2.30;99.90
16929;DHT22;8581;47.334;11.190;2024-01-30T07:39:49;-2.20;99.90
16929;DHT22;8581;47.334;11.190;2024-01-30T07:43:11;-2.10;99.90
16929;DHT22;8581;47.334;11.190;2024-01-30T07:46:33;-2.10;99.90
16929;DHT22;8581;47.334;11.190;2024-01-30T07:49:54;-2.00;99.90
16929;DHT22;8581;47.334;11.190;2024-01-30T07:53:16;-2.00;99.90
16929;DHT22;8581;47.334;11.190;2024-01-30T07:56:38;-1.90;99.90
16929;DHT22;8581;47.334;11.190;2024-01-30T08:00:00;-1.90;99.90
16929;DHT22;8581;47.334;11.190;2024-01-30T08:03:21;-1.90;99.90
16929;DHT22;8581;47.334;11.190;2024-01-30T08:06:43;-1.90;99.90
16929;DHT22;8581;47.334;11.190;2024-01-30T08:10:05;-1.80;99.90
16929;DHT22;8581;47.334;11.190;2024-01-30T08:13:27;-1.60;99.90
16929;DHT22;8581;47.334;11.190;2024-01-30T08:16:48;-1.60;99.90
16929;DHT22;8581;47.334;11.190;2024-01-30T08:20:11;-1.30;99.90
16929;DHT22;8581;47.334;11.190;2024-01-30T08:23:32;-1.10;99.90
16929;DHT22;8581;47.334;11.190;2024-01-30T08:26:54;-0.80;99.90
16929;DHT22;8581;47.334;11.190;2024-01-30T08:30:16;-0.60;99.90
16929;DHT22;8581;47.334;11.190;2024-01-30T08:33:37;0.10;99.90
16929;DHT22;8581;47.334;11.190;2024-01-30T08:36:59;0.70;99.90
16929;DHT22;8581;47.334;11.190;2024-01-30T08:40:20;1.10;99.90
16929;DHT22;8581;47.334;11.190;2024-01-30T08:43:42;1.80;99.90
16929;DHT22;8581;47.334;11.190;2024-01-30T08:47:04;2.70;99.90
16929;DHT22;8581;47.334;11.190;2024-01-30T08:50:26;3.60;99.90
16929;DHT22;8581;47.334;11.190;2024-01-30T08:53:47;3.60;99.90
16929;DHT22;8581;47.334;11.190;2024-01-30T08:57:09;3.90;99.90
16929;DHT22;8581;47.334;11.190;2024-01-30T09:00:31;4.00;99.90
16929;DHT22;8581;47.334;11.190;2024-01-30T09:03:53;4.30;99.90
16929;DHT22;8581;47.334;11.190;2024-01-30T09:07:14;4.70;99.90
16929;DHT22;8581;47.334;11.190;2024-01-30T09:10:36;5.10;99.90
16929;DHT22;8581;47.334;11.190;2024-01-30T09:13:58;5.60;99.90
16929;DHT22;8581;47.334;11.190;2024-01-30T09:17:19;6.40;99.90
16929;DHT22;8581;47.334;11.190;2024-01-30T09:20:41;7.10;99.90
16929;DHT22;8581;47.334;11.190;2024-01-30T09:24:03;7.40;99.90
16929;DHT22;8581;47.334;11.190;2024-01-30T09:27:25;7.60;99.90
16929;DHT22;8581;47.334;11.190;2024-01-30T09:30:47;7.80;99.80
16929;DHT22;8581;47.334;11.190;2024-01-30T09:34:08;8.10;98.40
16929;DHT22;8581;47.334;11.190;2024-01-30T09:37:30;8.40;97.40
16929;DHT22;8581;47.334;11.190;2024-01-30T09:40:53;8.70;96.20
16929;DHT22;8581;47.334;11.190;2024-01-30T09:44:13;9.00;95.10
16929;DHT22;8581;47.334;11.190;2024-01-30T09:47:41;9.30;95.10
16929;DHT22;8581;47.334;11.190;2024-01-30T09:51:04;9.50;94.80
16929;DHT22;8581;47.334;11.190;2024-01-30T09:54:26;9.90;93.20
16929;DHT22;8581;47.334;11.190;2024-01-30T09:57:47;10.00;92.80
16929;DHT22;8581;47.334;11.190;2024-01-30T10:01:09;10.40;91.90
16929;DHT22;8581;47.334;11.190;2024-01-30T10:04:30;10.60;90.60
16929;DHT22;8581;47.334;11.190;2024-01-30T10:07:53;10.60;90.70
16929;DHT22;8581;47.334;11.190;2024-01-30T10:11:15;10.90;90.30
16929;DHT22;8581;47.334;11.190;2024-01-30T10:14:39;11.00;86.50
16929;DHT22;8581;47.334;11.190;2024-01-30T10:18:01;11.20;88.10
16929;DHT22;8581;47.334;11.190;2024-01-30T10:21:22;11.40;87.00
16929;DHT22;8581;47.334;11.190;2024-01-30T10:24:44;11.40;85.70
16929;DHT22;8581;47.334;11.190;2024-01-30T10:28:06;11.30;85.50
16929;DHT22;8581;47.334;11.190;2024-01-30T10:31:27;11.30;86.10
16929;DHT22;8581;47.334;11.190;2024-01-30T10:34:49;11.50;86.50
16929;DHT22;8581;47.334;11.190;2024-01-30T10:38:11;11.70;84.80
16929;DHT22;8581;47.334;11.190;2024-01-30T10:41:33;12.00;83.90
16929;DHT22;8581;47.334;11.190;2024-01-30T10:45:00;11.90;82.10
16929;DHT22;8581;47.334;11.190;2024-01-30T10:48:18;12.00;82.80
16929;DHT22;8581;47.334;11.190;2024-01-30T10:51:40;12.30;80.00
16929;DHT22;8581;47.334;11.190;2024-01-30T10:55:02;12.70;79.50
16929;DHT22;8581;47.334;11.190;2024-01-30T10:58:24;13.10;82.60
16929;DHT22;8581;47.334;11.190;2024-01-30T11:01:45;13.60;79.50
16929;DHT22;8581;47.334;11.190;2024-01-30T11:05:07;14.20;76.90
16929;DHT22;8581;47.334;11.190;2024-01-30T11:08:31;14.50;75.60
16929;DHT22;8581;47.334;11.190;2024-01-30T11:11:52;14.80;76.70
16929;DHT22;8581;47.334;11.190;2024-01-30T11:15:13;14.70;70.50
16929;DHT22;8581;47.334;11.190;2024-01-30T11:18:35;14.50;70.60
16929;DHT22;8581;47.334;11.190;2024-01-30T11:21:56;14.70;69.60
16929;DHT22;8581;47.334;11.190;2024-01-30T11:25:20;14.90;70.50
16929;DHT22;8581;47.334;11.190;2024-01-30T11:28:41;15.30;68.00
16929;DHT22;8581;47.334;11.190;2024-01-30T11:32:05;15.60;67.60
16929;DHT22;8581;47.334;11.190;2024-01-30T11:35:26;15.70;69.10
16929;DHT22;8581;47.334;11.190;2024-01-30T11:38:48;15.20;68.70
16929;DHT22;8581;47.334;11.190;2024-01-30T11:42:10;15.60;66.50
16929;DHT22;8581;47.334;11.190;2024-01-30T11:45:32;16.10;66.70
16929;DHT22;8581;47.334;11.190;2024-01-30T11:48:53;16.10;66.60
16929;DHT22;8581;47.334;11.190;2024-01-30T11:52:14;15.90;66.30
16929;DHT22;8581;47.334;11.190;2024-01-30T11:55:36;15.80;68.00
16929;DHT22;8581;47.334;11.190;2024-01-30T11:58:58;16.20;73.30
16929;DHT22;8581;47.334;11.190;2024-01-30T12:02:19;16.20;74.40
16929;DHT22;8581;47.334;11.190;2024-01-30T12:05:41;17.20;74.60
16929;DHT22;8581;47.334;11.190;2024-01-30T12:09:03;17.70;72.30
16929;DHT22;8581;47.334;11.190;2024-01-30T12:12:26;18.40;68.60
16929;DHT22;8581;47.334;11.190;2024-01-30T12:15:47;19.30;64.60
16929;DHT22;8581;47.334;11.190;2024-01-30T12:19:09;18.00;67.60
16929;DHT22;8581;47.334;11.190;2024-01-30T12:22:30;17.70;71.80
16929;DHT22;8581;47.334;11.190;2024-01-30T12:25:52;19.00;69.10
16929;DHT22;8581;47.334;11.190;2024-01-30T12:29:14;20.20;67.10
16929;DHT22;8581;47.334;11.190;2024-01-30T12:32:36;22.20;64.90
16929;DHT22;8581;47.334;11.190;2024-01-30T12:35:57;24.20;58.30
16929;DHT22;8581;47.334;11.190;2024-01-30T12:39:19;22.70;57.00
16929;DHT22;8581;47.334;11.190;2024-01-30T12:42:41;22.10;59.20
16929;DHT22;8581;47.334;11.190;2024-01-30T12:46:03;22.40;58.70
16929;DHT22;8581;47.334;11.190;2024-01-30T12:49:24;23.30;57.00
16929;DHT22;8581;47.334;11.190;2024-01-30T12:52:46;22.90;55.90
16929;DHT22;8581;47.334;11.190;2024-01-30T12:56:08;22.00;55.40
16929;DHT22;8581;47.334;11.190;2024-01-30T12:59:30;21.30;55.10
16929;DHT22;8581;47.334;11.190;2024-01-30T13:02:51;20.10;56.50
16929;DHT22;8581;47.334;11.190;2024-01-30T13:06:13;19.30;57.70
16929;DHT22;8581;47.334;11.190;2024-01-30T13:09:34;19.10;58.10
16929;DHT22;8581;47.334;11.190;2024-01-30T13:12:56;19.30;58.90
16929;DHT22;8581;47.334;11.190;2024-01-30T13:16:18;18.90;63.10
16929;DHT22;8581;47.334;11.190;2024-01-30T13:19:39;18.50;65.30
16929;DHT22;8581;47.334;11.190;2024-01-30T13:23:01;17.90;67.50
16929;DHT22;8581;47.334;11.190;2024-01-30T13:26:23;17.70;70.70
16929;DHT22;8581;47.334;11.190;2024-01-30T13:29:44;20.20;65.80
16929;DHT22;8581;47.334;11.190;2024-01-30T13:33:06;21.80;65.80
16929;DHT22;8581;47.334;11.190;2024-01-30T13:36:28;24.00;58.20
16929;DHT22;8581;47.334;11.190;2024-01-30T13:39:49;26.10;52.70
16929;DHT22;8581;47.334;11.190;2024-01-30T13:43:11;26.10;57.00
16929;DHT22;8581;47.334;11.190;2024-01-30T13:46:33;25.90;52.70
16929;DHT22;8581;47.334;11.190;2024-01-30T13:49:54;25.30;54.50
16929;DHT22;8581;47.334;11.190;2024-01-30T13:53:16;26.00;54.50
16929;DHT22;8581;47.334;11.190;2024-01-30T13:56:37;25.00;54.40
16929;DHT22;8581;47.334;11.190;2024-01-30T13:59:59;25.80;52.60
16929;DHT22;8581;47.334;11.190;2024-01-30T14:03:21;25.20;53.60
16929;DHT22;8581;47.334;11.190;2024-01-30T14:06:42;24.60;55.60
16929;DHT22;8581;47.334;11.190;2024-01-30T14:10:05;22.70;57.50
16929;DHT22;8581;47.334;11.190;2024-01-30T14:13:27;20.60;61.20
16929;DHT22;8581;47.334;11.190;2024-01-30T14:16:48;19.80;64.40
16929;DHT22;8581;47.334;11.190;2024-01-30T14:20:10;20.20;64.60
16929;DHT22;8581;47.334;11.190;2024-01-30T14:23:32;20.20;64.60
16929;DHT22;8581;47.334;11.190;2024-01-30T14:26:53;20.00;64.20
16929;DHT22;8581;47.334;11.190;2024-01-30T14:30:15;19.70;64.90
16929;DHT22;8581;47.334;11.190;2024-01-30T14:33:37;19.80;64.80
16929;DHT22;8581;47.334;11.190;2024-01-30T14:36:58;20.90;63.80
16929;DHT22;8581;47.334;11.190;2024-01-30T14:40:20;22.10;60.30
16929;DHT22;8581;47.334;11.190;2024-01-30T14:43:42;23.40;59.00
16929;DHT22;8581;47.334;11.190;2024-01-30T14:47:03;23.30;57.30
16929;DHT22;8581;47.334;11.190;2024-01-30T14:50:25;23.00;59.40
16929;DHT22;8581;47.334;11.190;2024-01-30T14:53:47;20.70;62.90
16929;DHT22;8581;47.334;11.190;2024-01-30T14:57:08;19.40;65.80
16929;DHT22;8581;47.334;11.190;2024-01-30T15:00:30;17.80;69.30
16929;DHT22;8581;47.334;11.190;2024-01-30T15:03:52;17.50;70.80
16929;DHT22;8581;47.334;11.190;2024-01-30T15:07:13;16.30;73.10
16929;DHT22;8581;47.334;11.190;2024-01-30T15:10:35;14.60;77.00
16929;DHT22;8581;47.334;11.190;2024-01-30T15:13:56;13.60;80.00
16929;DHT22;8581;47.334;11.190;2024-01-30T15:17:18;12.90;82.00
16929;DHT22;8581;47.334;11.190;2024-01-30T15:20:40;12.70;84.80
16929;DHT22;8581;47.334;11.190;2024-01-30T15:24:02;12.00;87.30
16929;DHT22;8581;47.334;11.190;2024-01-30T15:27:23;11.20;90.60
16929;DHT22;8581;47.334;11.190;2024-01-30T15:30:45;10.70;91.00
16929;DHT22;8581;47.334;11.190;2024-01-30T15:34:06;10.40;91.80
16929;DHT22;8581;47.334;11.190;2024-01-30T15:37:28;9.90;92.70
16929;DHT22;8581;47.334;11.190;2024-01-30T15:40:50;9.20;93.90
16929;DHT22;8581;47.334;11.190;2024-01-30T15:44:11;8.90;94.80
16929;DHT22;8581;47.334;11.190;2024-01-30T15:47:33;8.50;95.60
16929;DHT22;8581;47.334;11.190;2024-01-30T15:50:55;8.40;96.40
16929;DHT22;8581;47.334;11.190;2024-01-30T15:54:17;8.10;97.20
16929;DHT22;8581;47.334;11.190;2024-01-30T15:57:38;7.90;97.80
16929;DHT22;8581;47.334;11.190;2024-01-30T16:01:00;7.40;98.60
16929;DHT22;8581;47.334;11.190;2024-01-30T16:04:22;6.90;99.90
16929;DHT22;8581;47.334;11.190;2024-01-30T16:07:43;6.60;99.90
16929;DHT22;8581;47.334;11.190;2024-01-30T16:11:05;6.20;99.90
16929;DHT22;8581;47.334;11.190;2024-01-30T16:14:26;5.80;99.90
16929;DHT22;8581;47.334;11.190;2024-01-30T16:17:48;5.60;99.90
16929;DHT22;8581;47.334;11.190;2024-01-30T16:21:10;5.40;99.90
16929;DHT22;8581;47.334;11.190;2024-01-30T16:24:37;5.20;99.90
16929;DHT22;8581;47.334;11.190;2024-01-30T16:27:59;5.00;99.90
16929;DHT22;8581;47.334;11.190;2024-01-30T16:31:20;4.90;99.90
16929;DHT22;8581;47.334;11.190;2024-01-30T16:34:42;4.50;99.90
16929;DHT22;8581;47.334;11.190;2024-01-30T16:38:04;4.40;99.90
16929;DHT22;8581;47.334;11.190;2024-01-30T16:41:25;4.30;99.90
16929;DHT22;8581;47.334;11.190;2024-01-30T16:44:47;4.20;99.90
16929;DHT22;8581;47.334;11.190;2024-01-30T16:48:09;4.10;99.90
16929;DHT22;8581;47.334;11.190;2024-01-30T16:51:30;3.90;99.90
16929;DHT22;8581;47.334;11.190;2024-01-30T16:54:53;3.70;99.90
16929;DHT22;8581;47.334;11.190;2024-01-30T16:58:14;3.60;99.90
16929;DHT22;8581;47.334;11.190;2024-01-30T17:01:35;3.40;99.90
16929;DHT22;8581;47.334;11.190;2024-01-30T17:04:57;3.30;99.90
16929;DHT22;8581;47.334;11.190;2024-01-30T17:08:19;3.10;99.90
16929;DHT22;8581;47.334;11.190;2024-01-30T17:11:41;3.00;99.90
16929;DHT22;8581;47.334;11.190;2024-01-30T17:15:04;3.00;99.90
16929;DHT22;8581;47.334;11.190;2024-01-30T17:18:25;2.80;99.90
16929;DHT22;8581;47.334;11.190;2024-01-30T17:21:47;2.70;99.90
16929;DHT22;8581;47.334;11.190;2024-01-30T17:25:09;2.60;99.90
16929;DHT22;8581;47.334;11.190;2024-01-30T17:28:30;2.50;99.90
16929;DHT22;8581;47.334;11.190;2024-01-30T17:31:52;2.40;99.90
16929;DHT22;8581;47.334;11.190;2024-01-30T17:35:13;2.10;99.90
16929;DHT22;8581;47.334;11.190;2024-01-30T17:38:35;2.10;99.90
16929;DHT22;8581;47.334;11.190;2024-01-30T17:41:57;2.10;99.90
16929;DHT22;8581;47.334;11.190;2024-01-30T17:45:18;2.20;99.90
16929;DHT22;8581;47.334;11.190;2024-01-30T17:48:40;2.00;99.90
16929;DHT22;8581;47.334;11.190;2024-01-30T17:52:02;2.00;99.90
16929;DHT22;8581;47.334;11.190;2024-01-30T17:55:23;2.10;99.90
16929;DHT22;8581;47.334;11.190;2024-01-30T17:58:45;2.00;99.90
16929;DHT22;8581;47.334;11.190;2024-01-30T18:02:07;2.00;99.90
16929;DHT22;8581;47.334;11.190;2024-01-30T18:05:28;1.90;99.90
16929;DHT22;8581;47.334;11.190;2024-01-30T18:08:50;2.00;99.90
16929;DHT22;8581;47.334;11.190;2024-01-30T18:12:11;2.00;99.90
16929;DHT22;8581;47.334;11.190;2024-01-30T18:15:33;2.00;99.90
16929;DHT22;8581;47.334;11.190;2024-01-30T18:18:55;2.00;99.90
16929;DHT22;8581;47.334;11.190;2024-01-30T18:22:16;1.90;99.90
16929;DHT22;8581;47.334;11.190;2024-01-30T18:25:38;2.00;99.90
16929;DHT22;8581;47.334;11.190;2024-01-30T18:29:00;2.30;99.90
16929;DHT22;8581;47.334;11.190;2024-01-30T18:32:21;2.40;99.90
16929;DHT22;8581;47.334;11.190;2024-01-30T18:35:43;2.40;99.90
16929;DHT22;8581;47.334;11.190;2024-01-30T18:39:05;2.50;99.90
16929;DHT22;8581;47.334;11.190;2024-01-30T18:42:26;2.60;99.90
16929;DHT22;8581;47.334;11.190;2024-01-30T18:45:52;2.80;99.90
16929;DHT22;8581;47.334;11.190;2024-01-30T18:49:14;2.80;99.90
16929;DHT22;8581;47.334;11.190;2024-01-30T18:52:36;2.60;99.90
16929;DHT22;8581;47.334;11.190;2024-01-30T18:55:57;2.60;99.90
16929;DHT22;8581;47.334;11.190;2024-01-30T18:59:19;2.60;99.90
16929;DHT22;8581;47.334;11.190;2024-01-30T19:02:41;2.80;99.90
16929;DHT22;8581;47.334;11.190;2024-01-30T19:06:03;2.70;99.90
16929;DHT22;8581;47.334;11.190;2024-01-30T19:09:25;2.60;99.90
16929;DHT22;8581;47.334;11.190;2024-01-30T19:12:47;2.60;99.90
16929;DHT22;8581;47.334;11.190;2024-01-30T19:16:08;2.70;99.90
16929;DHT22;8581;47.334;11.190;2024-01-30T19:19:30;2.60;99.90
16929;DHT22;8581;47.334;11.190;2024-01-30T19:22:51;2.50;99.90
16929;DHT22;8581;47.334;11.190;2024-01-30T19:26:13;2.50;99.90
16929;DHT22;8581;47.334;11.190;2024-01-30T19:29:35;2.60;99.90
16929;DHT22;8581;47.334;11.190;2024-01-30T19:32:56;2.70;99.90
16929;DHT22;8581;47.334;11.190;2024-01-30T19:36:18;2.40;99.90
16929;DHT22;8581;47.334;11.190;2024-01-30T19:39:40;2.20;99.90
16929;DHT22;8581;47.334;11.190;2024-01-30T19:43:01;2.20;99.90
16929;DHT22;8581;47.334;11.190;2024-01-30T19:46:23;1.90;99.90
16929;DHT22;8581;47.334;11.190;2024-01-30T19:49:45;1.80;99.90
16929;DHT22;8581;47.334;11.190;2024-01-30T19:53:06;1.70;99.90
16929;DHT22;8581;47.334;11.190;2024-01-30T19:56:28;1.60;99.90
16929;DHT22;8581;47.334;11.190;2024-01-30T19:59:49;1.60;99.90
16929;DHT22;8581;47.334;11.190;2024-01-30T20:03:11;1.60;99.90
16929;DHT22;8581;47.334;11.190;2024-01-30T20:06:33;1.50;99.90
16929;DHT22;8581;47.334;11.190;2024-01-30T20:09:54;1.60;99.90
16929;DHT22;8581;47.334;11.190;2024-01-30T20:13:16;1.40;99.90
16929;DHT22;8581;47.334;11.190;2024-01-30T20:16:39;1.30;99.90
16929;DHT22;8581;47.334;11.190;2024-01-30T20:20:00;1.10;99.90
16929;DHT22;8581;47.334;11.190;2024-01-30T20:23:21;1.10;99.90
16929;DHT22;8581;47.334;11.190;2024-01-30T20:26:43;1.00;99.90
16929;DHT22;8581;47.334;11.190;2024-01-30T20:30:06;0.90;99.90
16929;DHT22;8581;47.334;11.190;2024-01-30T20:33:28;1.00;99.90
16929;DHT22;8581;47.334;11.190;2024-01-30T20:36:49;1.00;99.90
16929;DHT22;8581;47.334;11.190;2024-01-30T20:40:11;0.90;99.90
16929;DHT22;8581;47.334;11.190;2024-01-30T20:43:33;0.80;99.90
16929;DHT22;8581;47.334;11.190;2024-01-30T20:46:54;0.80;99.90
16929;DHT22;8581;47.334;11.190;2024-01-30T20:50:16;0.80;99.90
16929;DHT22;8581;47.334;11.190;2024-01-30T20:53:37;0.80;99.90
16929;DHT22;8581;47.334;11.190;2024-01-30T20:56:59;0.80;99.90
16929;DHT22;8581;47.334;11.190;2024-01-30T21:00:21;0.60;99.90
16929;DHT22;8581;47.334;11.190;2024-01-30T21:03:43;0.60;99.90
16929;DHT22;8581;47.334;11.190;2024-01-30T21:07:04;0.60;99.90
16929;DHT22;8581;47.334;11.190;2024-01-30T21:10:26;0.60;99.90
16929;DHT22;8581;47.334;11.190;2024-01-30T21:13:48;0.80;99.90
16929;DHT22;8581;47.334;11.190;2024-01-30T21:17:09;0.60;99.90
16929;DHT22;8581;47.334;11.190;2024-01-30T21:20:31;0.50;99.90